createdAt,value
2022-07-29T00:01:19.449Z,71.11
2022-07-29T00:04:22.634Z,70.78
2022-07-29T00:07:24.923Z,70.91
2022-07-29T00:10:27.184Z,70.82
2022-07-29T00:13:32.120Z,70.91
2022-07-29T00:16:35.945Z,70.85
2022-07-29T00:19:37.869Z,70.88
2022-07-29T00:22:40.447Z,70.81
2022-07-29T00:25:42.380Z,70.86
2022-07-29T00:28:44.503Z,71.03
2022-07-29T00:31:46.637Z,70.75
2022-07-29T00:35:07.288Z,70.33
2022-07-29T00:38:09.438Z,70.52
2022-07-29T00:41:12.190Z,70.50
2022-07-29T00:44:14.542Z,70.29
2022-07-29T00:47:16.817Z,70.25
2022-07-29T00:50:19.155Z,70.28
2022-07-29T00:53:22.461Z,70.27
2022-07-29T00:56:24.483Z,70.63
2022-07-29T00:59:34.653Z,70.57
2022-07-29T01:02:37.321Z,70.86
2022-07-29T01:05:51.028Z,70.50
2022-07-29T01:08:53.990Z,70.40
2022-07-29T01:11:56.629Z,70.73
2022-07-29T01:15:00.424Z,70.59
2022-07-29T01:18:29.205Z,70.65
2022-07-29T01:21:51.090Z,71.10
2022-07-29T01:24:56.165Z,70.92
2022-07-29T01:28:01.253Z,71.06
2022-07-29T01:31:08.060Z,71.18
2022-07-29T01:34:22.569Z,71.39
2022-07-29T01:37:30.882Z,71.51
2022-07-29T01:40:41.956Z,71.36
2022-07-29T01:43:54.581Z,71.63
2022-07-29T01:47:01.433Z,71.52
2022-07-29T01:50:09.042Z,71.59
2022-07-29T01:53:13.328Z,71.47
2022-07-29T01:56:19.713Z,71.78
2022-07-29T01:59:22.461Z,71.84
2022-07-29T02:02:27.476Z,72.45
2022-07-29T02:05:31.644Z,72.52
2022-07-29T02:08:35.523Z,72.80
2022-07-29T02:11:39.318Z,73.05
2022-07-29T02:14:46.854Z,73.51
2022-07-29T02:17:57.672Z,73.48
2022-07-29T02:21:00.895Z,73.84
2022-07-29T02:24:05.509Z,73.95
2022-07-29T02:27:09.172Z,73.77
2022-07-29T02:30:13.416Z,74.00
2022-07-29T02:33:18.513Z,73.74
2022-07-29T02:36:22.889Z,73.95
2022-07-29T02:39:26.433Z,73.90
2022-07-29T02:42:29.777Z,74.14
2022-07-29T02:45:33.471Z,73.96
2022-07-29T02:48:39.884Z,74.14
2022-07-29T02:51:50.581Z,74.01
2022-07-29T02:54:54.960Z,74.07
2022-07-29T02:58:03.349Z,74.11
2022-07-29T03:01:21.330Z,74.22
2022-07-29T03:04:27.341Z,74.12
2022-07-29T03:07:30.376Z,74.05
2022-07-29T03:10:33.006Z,74.12
2022-07-29T03:13:36.728Z,74.13
2022-07-29T03:16:41.235Z,74.07
2022-07-29T03:19:43.518Z,74.06
2022-07-29T03:22:49.116Z,74.23
2022-07-29T03:25:51.650Z,74.23
2022-07-29T03:28:54.489Z,74.15
2022-07-29T03:31:57.842Z,74.36
2022-07-29T03:35:00.689Z,74.44
2022-07-29T03:38:02.767Z,74.93
2022-07-29T03:41:10.088Z,74.98
2022-07-29T03:44:13.659Z,75.09
2022-07-29T03:47:18.667Z,75.01
2022-07-29T03:50:23.967Z,75.22
2022-07-29T03:53:26.558Z,75.22
2022-07-29T03:56:29.979Z,75.59
2022-07-29T03:59:35.070Z,76.04
2022-07-29T04:02:39.322Z,75.92
2022-07-29T04:05:42.359Z,75.93
2022-07-29T04:08:44.275Z,75.99
2022-07-29T04:12:01.577Z,76.15
2022-07-29T04:15:06.644Z,76.30
2022-07-29T04:18:08.830Z,76.23
2022-07-29T04:21:10.817Z,76.44
2022-07-29T04:24:14.311Z,76.61
2022-07-29T04:27:16.673Z,76.35
2022-07-29T04:30:19.607Z,76.22
2022-07-29T04:33:21.520Z,76.27
2022-07-29T04:36:29.111Z,76.08
2022-07-29T04:39:31.971Z,76.02
2022-07-29T04:42:34.263Z,76.01
2022-07-29T04:45:46.311Z,75.98
2022-07-29T04:48:48.859Z,75.85
2022-07-29T04:51:50.865Z,75.72
2022-07-29T04:54:52.925Z,75.73
2022-07-29T04:57:54.977Z,75.70
2022-07-29T05:00:57.145Z,75.48
2022-07-29T05:04:00.632Z,75.41
2022-07-29T05:07:03.701Z,75.68
2022-07-29T05:10:06.223Z,75.47
2022-07-29T05:13:08.974Z,75.23
2022-07-29T05:16:11.039Z,75.06
2022-07-29T05:19:14.601Z,74.84
2022-07-29T05:22:17.119Z,74.72
2022-07-29T05:25:19.454Z,74.56
2022-07-29T05:28:21.589Z,74.51
2022-07-29T05:31:23.771Z,74.62
2022-07-29T05:34:26.250Z,74.71
2022-07-29T05:37:28.727Z,74.85
2022-07-29T05:40:31.012Z,74.97
2022-07-29T05:43:33.786Z,74.76
2022-07-29T05:46:35.800Z,74.53
2022-07-29T05:49:38.618Z,74.02
2022-07-29T05:52:40.628Z,73.55
2022-07-29T05:55:43.632Z,72.88
2022-07-29T05:58:45.713Z,72.30
2022-07-29T06:01:48.105Z,71.97
2022-07-29T06:04:50.738Z,71.35
2022-07-29T06:07:53.250Z,70.57
2022-07-29T06:10:55.336Z,70.22
2022-07-29T06:13:57.685Z,70.32
2022-07-29T06:16:59.678Z,70.60
2022-07-29T06:20:02.968Z,70.26
2022-07-29T06:23:05.731Z,69.23
2022-07-29T06:26:08.279Z,68.37
2022-07-29T06:29:14.089Z,68.34
2022-07-29T06:32:16.632Z,67.70
2022-07-29T06:35:39.043Z,66.59
2022-07-29T06:38:44.888Z,65.05
2022-07-29T06:41:51.850Z,64.36
2022-07-29T06:44:53.992Z,65.28
2022-07-29T06:47:56.017Z,66.29
2022-07-29T06:50:58.587Z,67.37
2022-07-29T06:54:03.443Z,67.19
2022-07-29T06:57:06.164Z,66.93
2022-07-29T07:00:09.081Z,66.76
2022-07-29T07:03:11.344Z,66.41
2022-07-29T07:06:15.190Z,64.97
2022-07-29T07:09:17.439Z,64.74
2022-07-29T07:12:20.108Z,64.46
2022-07-29T07:15:23.026Z,64.43
2022-07-29T07:18:41.734Z,64.42
2022-07-29T07:21:44.107Z,64.01
2022-07-29T07:24:46.017Z,63.66
2022-07-29T07:27:48.162Z,62.34
2022-07-29T07:30:50.303Z,60.18
2022-07-29T07:33:54.524Z,59.20
2022-07-29T07:36:56.774Z,57.96
2022-07-29T07:39:59.107Z,57.19
2022-07-29T07:43:01.058Z,55.86
2022-07-29T07:46:03.788Z,55.30
2022-07-29T07:49:06.019Z,54.77
2022-07-29T07:52:08.183Z,54.59
2022-07-29T07:55:10.246Z,53.79
2022-07-29T07:58:12.856Z,54.02
2022-07-29T08:01:15.014Z,53.63
2022-07-29T08:04:22.188Z,53.28
2022-07-29T08:07:27.219Z,51.79
2022-07-29T08:10:47.996Z,51.19
2022-07-29T08:13:50.270Z,51.23
2022-07-29T08:16:53.099Z,50.42
2022-07-29T08:19:56.175Z,49.03
2022-07-29T08:22:58.366Z,48.93
2022-07-29T08:26:00.343Z,46.68
2022-07-29T08:29:02.715Z,45.80
2022-07-29T08:32:05.711Z,45.39
2022-07-29T08:35:08.583Z,43.88
2022-07-29T08:38:10.991Z,44.42
2022-07-29T08:41:13.496Z,44.80
2022-07-29T08:44:30.842Z,46.33
2022-07-29T08:47:34.384Z,47.57
2022-07-29T08:50:37.877Z,45.95
2022-07-29T08:53:43.046Z,44.33
2022-07-29T08:56:49.121Z,43.77
2022-07-29T08:59:55.501Z,45.42
2022-07-29T09:02:59.878Z,46.15
2022-07-29T09:06:03.872Z,45.75
2022-07-29T09:09:06.855Z,44.00
2022-07-29T09:12:09.311Z,43.03
2022-07-29T09:15:11.793Z,44.53
2022-07-29T09:18:36.065Z,43.94
2022-07-29T09:22:03.142Z,46.04
2022-07-29T09:25:06.576Z,46.95
2022-07-29T09:28:11.287Z,46.29
2022-07-29T09:31:13.637Z,45.12
2022-07-29T09:34:17.924Z,46.47
2022-07-29T09:37:33.355Z,48.00
2022-07-29T09:40:35.542Z,48.58
2022-07-29T09:43:38.824Z,48.41
2022-07-29T09:46:43.104Z,47.82
2022-07-29T09:49:59.464Z,47.07
2022-07-29T09:53:01.467Z,46.50
2022-07-29T09:56:04.873Z,44.06
2022-07-29T09:59:08.304Z,41.69
2022-07-29T10:02:18.918Z,41.68
2022-07-29T10:05:26.710Z,41.01
2022-07-29T10:08:38.848Z,41.58
2022-07-29T10:11:49.262Z,39.60
2022-07-29T10:14:52.496Z,40.03
2022-07-29T10:17:57.167Z,37.94
2022-07-29T10:21:02.501Z,39.86
2022-07-29T10:24:05.935Z,40.70
2022-07-29T10:27:09.394Z,41.26
2022-07-29T10:30:16.026Z,43.70
2022-07-29T10:33:52.892Z,44.54
2022-07-29T10:36:58.023Z,43.89
2022-07-29T10:41:03.286Z,46.48
2022-07-29T10:44:17.334Z,44.29
2022-07-29T10:47:23.035Z,39.41
2022-07-29T10:50:25.349Z,36.13
2022-07-29T10:53:48.188Z,39.08
2022-07-29T10:56:50.271Z,40.31
2022-07-29T11:00:02.173Z,40.44
2022-07-29T11:07:03.987Z,41.60
2022-07-29T11:10:15.526Z,37.88
2022-07-29T11:13:48.172Z,36.82
2022-07-29T11:17:05.931Z,35.86
2022-07-29T11:20:38.925Z,37.84
2022-07-29T11:23:44.545Z,38.75
2022-07-29T11:27:08.489Z,37.15
2022-07-29T11:30:12.977Z,36.12
2022-07-29T11:37:17.582Z,38.37
2022-07-29T11:40:21.435Z,36.67
2022-07-29T11:43:50.642Z,39.93
2022-07-29T11:46:54.290Z,39.20
2022-07-29T11:49:59.933Z,37.34
2022-07-29T11:53:10.726Z,40.25
2022-07-29T11:56:17.059Z,41.49
2022-07-29T11:59:21.066Z,38.46
2022-07-29T12:02:36.468Z,38.09
2022-07-29T12:05:48.200Z,38.98
2022-07-29T12:07:01.472Z,38.34
2022-07-29T12:08:53.756Z,38.89
2022-07-29T12:12:04.979Z,37.71
2022-07-29T12:15:22.216Z,37.65
2022-07-29T12:18:25.111Z,37.61
2022-07-29T12:21:28.737Z,37.73
2022-07-29T12:24:44.913Z,37.56
2022-07-29T12:27:47.225Z,37.84
2022-07-29T12:30:51.707Z,38.21
2022-07-29T12:33:54.766Z,39.49
2022-07-29T12:36:59.526Z,38.66
2022-07-29T12:40:01.959Z,37.92
2022-07-29T12:43:14.756Z,38.17
2022-07-29T12:46:17.425Z,38.12
2022-07-29T12:49:24.229Z,37.91
2022-07-29T12:52:32.029Z,37.59
2022-07-29T12:56:07.919Z,36.96
2022-07-29T12:59:23.033Z,38.49
2022-07-29T13:02:25.869Z,38.32
2022-07-29T13:05:49.061Z,37.79
2022-07-29T13:09:03.934Z,37.73
2022-07-29T13:12:11.888Z,37.42
2022-07-29T13:15:17.297Z,36.81
2022-07-29T13:18:33.534Z,35.69
2022-07-29T13:21:36.477Z,36.64
2022-07-29T13:24:53.897Z,37.48
2022-07-29T13:27:56.733Z,37.31
2022-07-29T13:30:58.891Z,36.99
2022-07-29T13:34:01.237Z,35.94
2022-07-29T13:37:03.308Z,36.51
2022-07-29T13:40:07.438Z,36.55
2022-07-29T13:43:13.496Z,37.50
2022-07-29T13:46:15.795Z,37.58
2022-07-29T13:49:17.887Z,38.47
2022-07-29T13:52:20.598Z,38.59
2022-07-29T13:55:24.667Z,37.76
2022-07-29T13:58:27.228Z,38.61
2022-07-29T14:01:31.422Z,39.01
2022-07-29T14:04:35.074Z,42.09
2022-07-29T14:07:39.720Z,41.93
2022-07-29T14:10:41.929Z,43.44
2022-07-29T14:13:47.926Z,44.98
2022-07-29T14:16:52.484Z,46.97
2022-07-29T14:19:57.530Z,48.19
2022-07-29T14:22:59.913Z,46.40
2022-07-29T14:26:02.019Z,47.60
2022-07-29T14:29:05.512Z,47.27
2022-07-29T14:32:08.728Z,47.04
2022-07-29T14:35:11.641Z,48.41
2022-07-29T14:38:15.397Z,49.07
2022-07-29T14:41:17.707Z,47.56
2022-07-29T14:44:19.692Z,44.90
2022-07-29T14:47:22.865Z,44.25
2022-07-29T14:50:31.654Z,43.36
2022-07-29T14:53:34.737Z,44.34
2022-07-29T14:56:37.641Z,45.55
2022-07-29T14:59:48.807Z,47.85
2022-07-29T15:03:01.787Z,48.33
2022-07-29T15:06:04.780Z,49.36
2022-07-29T15:09:07.260Z,50.85
2022-07-29T15:12:11.488Z,51.66
2022-07-29T15:15:13.668Z,52.13
2022-07-29T15:18:16.341Z,52.22
2022-07-29T15:21:28.224Z,52.81
2022-07-29T15:24:30.434Z,52.96
2022-07-29T15:27:32.429Z,53.71
2022-07-29T15:30:36.982Z,54.15
2022-07-29T15:33:39.348Z,54.74
2022-07-29T15:36:51.960Z,54.85
2022-07-29T15:39:59.884Z,55.25
2022-07-29T15:43:06.781Z,56.09
2022-07-29T15:46:27.513Z,56.42
2022-07-29T15:49:48.786Z,56.53
2022-07-29T15:52:51.957Z,56.84
2022-07-29T15:55:54.182Z,56.73
2022-07-29T15:58:56.642Z,56.38
2022-07-29T16:01:59.264Z,56.43
2022-07-29T16:05:01.206Z,56.39
2022-07-29T16:08:03.448Z,56.95
2022-07-29T16:11:05.499Z,56.58
2022-07-29T16:14:09.254Z,56.08
2022-07-29T16:17:14.262Z,57.03
2022-07-29T16:20:17.274Z,57.69
2022-07-29T16:23:19.217Z,57.89
2022-07-29T16:26:21.610Z,57.26
2022-07-29T16:29:23.523Z,58.16
2022-07-29T16:32:25.754Z,58.61
2022-07-29T16:35:39.119Z,58.39
2022-07-29T16:38:47.185Z,57.80
2022-07-29T16:41:49.795Z,57.30
2022-07-29T16:44:52.132Z,57.41
2022-07-29T16:48:00.235Z,57.19
2022-07-29T16:51:03.427Z,57.15
2022-07-29T16:54:05.845Z,57.35
2022-07-29T16:57:08.347Z,57.20
2022-07-29T17:00:11.119Z,57.17
2022-07-29T17:03:13.496Z,58.38
2022-07-29T17:06:15.560Z,58.59
2022-07-29T17:09:18.186Z,58.34
2022-07-29T17:12:20.142Z,58.36
2022-07-29T17:15:22.422Z,59.07
2022-07-29T17:18:24.402Z,59.76
2022-07-29T17:21:28.190Z,60.54
2022-07-29T17:24:30.913Z,60.81
2022-07-29T17:27:33.794Z,61.77
2022-07-29T17:30:36.001Z,61.49
2022-07-29T17:33:38.469Z,61.58
2022-07-29T17:36:40.736Z,61.79
2022-07-29T17:39:43.142Z,61.64
2022-07-29T17:42:45.485Z,62.09
2022-07-29T17:45:49.803Z,62.34
2022-07-29T17:48:54.817Z,63.05
2022-07-29T17:52:00.785Z,62.95
2022-07-29T17:55:05.213Z,62.94
2022-07-29T17:58:10.454Z,63.07
2022-07-29T18:01:12.835Z,63.59
2022-07-29T18:04:21.011Z,63.92
2022-07-29T18:07:23.294Z,64.08
2022-07-29T18:10:25.825Z,64.63
2022-07-29T18:13:27.780Z,65.11
2022-07-29T18:16:30.074Z,65.73
2022-07-29T18:19:32.104Z,65.75
2022-07-29T18:22:35.020Z,65.74
2022-07-29T18:25:37.164Z,66.11
2022-07-29T18:28:39.773Z,66.46
2022-07-29T18:31:42.680Z,66.96
2022-07-29T18:34:45.212Z,67.23
2022-07-29T18:38:02.199Z,67.57
2022-07-29T18:41:05.641Z,68.06
2022-07-29T18:44:09.689Z,68.36
2022-07-29T18:47:12.667Z,68.69
2022-07-29T18:50:16.183Z,68.57
2022-07-29T18:53:18.387Z,68.58
2022-07-29T18:56:21.252Z,69.40
2022-07-29T18:59:23.824Z,69.45
2022-07-29T19:02:26.221Z,69.58
2022-07-29T19:05:28.719Z,70.08
2022-07-29T19:08:31.036Z,70.26
2022-07-29T19:11:33.602Z,70.44
2022-07-29T19:14:35.960Z,71.37
2022-07-29T19:17:39.417Z,71.91
2022-07-29T19:20:42.218Z,71.85
2022-07-29T19:24:00.043Z,72.27
2022-07-29T19:27:06.745Z,72.57
2022-07-29T19:30:09.737Z,72.88
2022-07-29T19:33:14.864Z,73.45
2022-07-29T19:36:17.711Z,74.51
2022-07-29T19:39:19.909Z,75.38
2022-07-29T19:42:37.826Z,75.60
2022-07-29T19:45:40.189Z,76.12
2022-07-29T19:48:42.891Z,76.11
2022-07-29T19:51:45.336Z,76.21
2022-07-29T19:54:48.949Z,76.63
2022-07-29T19:57:55.623Z,76.78
2022-07-29T20:00:58.529Z,77.13
2022-07-29T20:04:05.081Z,77.18
2022-07-29T20:07:07.709Z,77.05
2022-07-29T20:10:10.369Z,77.25
2022-07-29T20:13:13.011Z,77.40
2022-07-29T20:16:14.927Z,77.43
2022-07-29T20:19:17.852Z,77.37
2022-07-29T20:22:21.191Z,77.51
2022-07-29T20:25:24.148Z,77.69
2022-07-29T20:28:26.333Z,77.82
2022-07-29T20:31:30.717Z,78.01
2022-07-29T20:34:33.166Z,78.30
2022-07-29T20:37:55.645Z,78.49
2022-07-29T20:40:59.136Z,78.87
2022-07-29T20:44:02.133Z,79.15
2022-07-29T20:47:04.383Z,79.18
2022-07-29T20:50:07.131Z,79.06
2022-07-29T20:53:09.478Z,79.33
2022-07-29T20:56:12.838Z,79.38
2022-07-29T20:59:15.192Z,79.44
2022-07-29T21:02:17.845Z,79.37
2022-07-29T21:05:19.933Z,79.58
2022-07-29T21:08:22.789Z,79.36
2022-07-29T21:11:44.100Z,79.48
2022-07-29T21:14:48.033Z,79.59
2022-07-29T21:17:52.498Z,79.83
2022-07-29T21:20:54.963Z,80.00
2022-07-29T21:23:57.665Z,80.19
2022-07-29T21:27:21.070Z,80.25
2022-07-29T21:30:23.363Z,80.25
2022-07-29T21:33:30.357Z,80.17
2022-07-29T21:36:48.872Z,80.24
2022-07-29T21:39:51.453Z,80.17
2022-07-29T21:42:54.047Z,80.04
2022-07-29T21:45:57.392Z,79.92
2022-07-29T21:48:59.438Z,80.11
2022-07-29T21:52:01.681Z,80.31
2022-07-29T21:55:04.127Z,80.56
2022-07-29T21:58:06.763Z,80.91
2022-07-29T22:01:08.841Z,81.12
2022-07-29T22:04:11.185Z,81.22
2022-07-29T22:07:13.425Z,81.46
2022-07-29T22:10:16.169Z,81.75
2022-07-29T22:13:18.159Z,81.73
2022-07-29T22:16:20.255Z,81.87
2022-07-29T22:19:22.197Z,81.96
2022-07-29T22:22:29.741Z,82.01
2022-07-29T22:25:31.778Z,82.02
2022-07-29T22:28:33.988Z,81.94
2022-07-29T22:31:36.177Z,82.05
2022-07-29T22:34:38.723Z,82.26
2022-07-29T22:45:13.822Z,82.46
2022-07-29T22:48:16.196Z,82.46
2022-07-29T22:51:18.160Z,82.70
2022-07-29T22:54:20.351Z,82.78
2022-07-29T22:57:22.333Z,83.11
2022-07-29T23:00:24.424Z,83.10
2022-07-29T23:03:26.550Z,83.05
2022-07-29T23:06:29.851Z,83.02
2022-07-29T23:09:31.740Z,83.42
2022-07-29T23:12:34.061Z,83.16
2022-07-29T23:15:36.030Z,83.12
2022-07-29T23:18:39.602Z,83.21
2022-07-29T23:21:41.616Z,82.99
2022-07-29T23:24:43.748Z,83.38
2022-07-29T23:27:45.698Z,83.50
2022-07-29T23:30:48.051Z,83.50
2022-07-29T23:33:49.973Z,83.84
2022-07-29T23:36:52.743Z,83.96
2022-07-29T23:39:54.581Z,84.21
2022-07-29T23:42:56.871Z,84.20
2022-07-29T23:45:59.064Z,84.34
2022-07-29T23:49:01.755Z,84.41
2022-07-29T23:52:03.926Z,84.18
2022-07-29T23:55:38.212Z,84.22
2022-07-29T23:58:28.465Z,84.08
